KCNO

Chino Airport

Chino, California, USA
METAR KCNO 260253Z 30008KT 10SM CLR 14/M03 A3013 RMK AO2 SLP203 T01441033 53008
Observed Flight Rules
Feb-26 @ 02:53 UTC (40 minutes ago) Visual Flight Rules
Wind Visibility Clouds
300° at 8 knots 10 miles
  • Clear skies
Temperatures Readings
Current 14°C / 57°F
Dewpoint -3°C / 27°F
Humidity 31%
Altimeter 30.13" Hg
Pressure 1020.3 hPa
Elevation 207
METAR KCNO 260253Z 30008KT 10SM CLR 14/M03 A3013 RMK AO2 SLP203 T01441033 53008
Observed Flight Rules
Feb-26 @ 02:53 UTC
(40 minutes ago)
VFR
Wind Visibility
300° at 8 knots 10 miles
Clouds
  • Clear skies
Temperature Dewpoint
14°C / 57°F -3°C / 27°F
Humidity Altimeter Pressure
31% 30.13" Hg 1020.3 hPa